Weather at CFB Bagotville / Saguenay-Bagotville Airport

Public forecast

Using degrees Celsius for public forecast. Weather courtesy of forecast.io.

Current aviation weather report (METAR) for CFB Bagotville / Saguenay-Bagotville Airport

2024/06/18 19:00 (retrieved 15 minutes ago)

CYBG 181900Z 02004KT 25SM FEW040TCU SCT110 BKN220 31/22 A3004 RMK TCU2AC2CC1 DENSITY ALT 2705FT TCU SW MOV E SLP170

Aviation forecast (TAF) for CFB Bagotville / Saguenay-Bagotville Airport

2024/06/18 18:43 (retrieved 32 minutes ago)

TAF CYBG 181741Z 1818/1918 09006KT P6SM SCT050 BKN200 TEMPO 1820/1902 4SM -SHRA BR FEW015 BKN030 PROB30 1820/1902 VRB15G30KT 1 1/2SM TSRA BR BKN015 BKN030CB FM190200 09005KT P6SM SCT050 BKN080 FM190600 VRB03KT P6SM SCT040 PROB30 1906/1911 1SM BR BKN004 FM191500 24008KT P6SM SCT050 RMK NXT FCST BY 182100Z